Melcher Dallas, Iowa
Current Conditions -  °F | °C
As of 8:15 PM on Friday 28 Nov 2014 (Local Time) from KOXV Reporting Station
Clear Clear  
Wind Chill: 29°   Ceiling: Unl
Heat Index: 36°   Visibility: 10mi
Dew Point: 30°   Wind: 9mph
Humidity: 81%   Direction: 150°SSE
Pressure: 29.72"   Gusts: NA
Location:  41.2269°N, 93.1611°W
Report Text: KOXV 290215Z AUTO 15008KT 10SM CLR 02/M01 A2972 RMK AO2
Loading
Personal Weather Stations






























Interactive Weather Map New forecast layout! Learn more

10-Day Weather Forecast

Advertisements
Track Severe Weather on mobile